Time;durP1;ratioP1;P1;durP2;ratioP2;P2;SDS_P1;SDS_P2;PMS_P1;PMS_P2;Temp;Humidity;BMP_temperature;BMP_pressure;BME280_temperature;BME280_humidity;BME280_pressure;Samples;Min_cycle;Max_cycle;Signal;HPM_P1;HPM_P2
2024/01/25 00:00:55;;;;;;;34.88;6.95;;;;;;;6.81;85.15;101291.59;10467846;28;20048;-78
2024/01/25 00:05:58;;;;;;;36.35;5.90;;;;;;;6.94;85.07;101297.22;10487571;28;20054;-79
2024/01/25 00:11:02;;;;;;;34.25;6.22;;;;;;;6.73;86.00;101291.13;10485836;28;20652;-79
2024/01/25 00:16:07;;;;;;;32.78;5.53;;;;;;;6.95;84.77;101290.06;10431472;28;20049;-81
2024/01/25 00:21:10;;;;;;;36.95;6.60;;;;;;;6.70;85.92;101283.25;10444221;28;20424;-78
2024/01/25 00:26:14;;;;;;;31.95;6.03;;;;;;;6.60;86.61;101284.66;10482185;28;20045;-81
2024/01/25 00:31:18;;;;;;;37.28;4.65;;;;;;;6.61;85.88;101279.25;10481918;28;20389;-81
2024/01/25 00:36:21;;;;;;;27.70;6.22;;;;;;;6.55;85.86;101284.03;10482077;28;20052;-79
2024/01/25 00:41:25;;;;;;;36.22;4.65;;;;;;;6.63;85.62;101289.84;10488226;28;20059;-81
2024/01/25 00:46:30;;;;;;;32.08;4.45;;;;;;;6.45;85.60;101294.31;10483674;28;20045;-80
2024/01/25 00:51:34;;;;;;;35.33;5.38;;;;;;;6.87;84.30;101292.22;10479202;28;20060;-79
2024/01/25 00:56:38;;;;;;;30.98;5.32;;;;;;;6.59;85.83;101309.63;10470017;28;20410;-78
2024/01/25 01:01:45;;;;;;;33.30;4.93;;;;;;;6.68;84.18;101292.28;10474244;28;20051;-78
2024/01/25 01:06:48;;;;;;;32.22;5.95;;;;;;;6.66;84.96;101296.84;10445413;28;20052;-82
2024/01/25 01:11:52;;;;;;;23.77;5.97;;;;;;;7.00;82.41;101302.22;10440515;28;20041;-80
2024/01/25 01:16:56;;;;;;;25.10;5.00;;;;;;;6.37;86.46;101313.34;10439529;28;20044;-79
2024/01/25 01:21:59;;;;;;;25.63;4.90;;;;;;;6.72;84.66;101308.09;10435169;28;20056;-79
2024/01/25 01:27:02;;;;;;;29.52;5.03;;;;;;;6.63;85.20;101301.38;10437373;28;20044;-81
2024/01/25 01:32:07;;;;;;;32.63;4.80;;;;;;;6.53;86.37;101312.63;10457867;28;20053;-80
2024/01/25 01:37:10;;;;;;;26.75;5.15;;;;;;;6.62;85.96;101310.34;10482036;28;20048;-81
2024/01/25 01:42:13;;;;;;;23.30;5.50;;;;;;;6.73;85.98;101327.66;10483718;28;20044;-79
2024/01/25 01:47:17;;;;;;;31.30;5.55;;;;;;;6.82;85.27;101338.72;10472592;28;20064;-81
2024/01/25 01:52:20;;;;;;;23.85;4.38;;;;;;;6.89;84.26;101346.47;10480415;28;20424;-80
2024/01/25 01:57:24;;;;;;;35.90;6.68;;;;;;;6.92;84.10;101357.84;10480698;28;20045;-79
2024/01/25 02:02:28;;;;;;;27.52;5.57;;;;;;;6.90;84.39;101351.72;10465620;28;20059;-80
2024/01/25 02:07:31;;;;;;;29.23;5.30;;;;;;;7.01;84.18;101360.06;10476529;28;20663;-79
2024/01/25 02:12:35;;;;;;;25.55;5.78;;;;;;;6.67;86.36;101363.53;10494636;28;20055;-80
2024/01/25 02:17:40;;;;;;;31.27;6.43;;;;;;;6.86;84.63;101350.13;10473680;28;20106;-79
2024/01/25 02:22:44;;;;;;;33.35;4.80;;;;;;;6.76;86.17;101359.53;10478850;28;20047;-81
2024/01/25 02:27:47;;;;;;;29.77;5.50;;;;;;;6.70;86.74;101368.72;10485727;28;20149;-79
2024/01/25 02:32:50;;;;;;;33.25;5.00;;;;;;;6.89;85.56;101359.81;10472492;28;20458;-79
2024/01/25 02:37:55;;;;;;;29.73;5.90;;;;;;;6.99;85.37;101369.09;10484657;28;20052;-79
2024/01/25 02:42:58;;;;;;;37.80;5.10;;;;;;;6.48;88.06;101386.72;10479143;28;20572;-79
2024/01/25 02:48:02;;;;;;;35.97;5.40;;;;;;;6.47;89.84;101387.63;10469746;28;20055;-79
2024/01/25 02:53:06;;;;;;;30.75;5.15;;;;;;;6.18;90.91;101395.22;10481988;28;20055;-79
2024/01/25 02:58:09;;;;;;;42.65;5.60;;;;;;;6.12;91.02;101399.06;10477565;28;20041;-80
2024/01/25 03:03:12;;;;;;;38.80;7.00;;;;;;;6.37;90.45;101388.09;10473415;28;20120;-80
2024/01/25 03:08:17;;;;;;;26.30;5.50;;;;;;;6.36;90.79;101393.47;10469206;28;20070;-81
2024/01/25 03:13:20;;;;;;;36.65;5.32;;;;;;;6.26;91.14;101398.41;10478093;28;20179;-82
2024/01/25 03:18:23;;;;;;;26.15;4.82;;;;;;;6.35;90.30;101384.63;10477463;28;20090;-79
2024/01/25 03:23:27;;;;;;;35.85;6.22;;;;;;;6.40;89.92;101393.28;10467853;28;20050;-79
2024/01/25 03:28:30;;;;;;;33.08;5.40;;;;;;;6.35;91.48;101391.75;10467853;28;20522;-79
2024/01/25 03:33:33;;;;;;;32.10;4.82;;;;;;;6.26;91.64;101394.88;10469650;28;20601;-78
2024/01/25 03:38:38;;;;;;;28.27;4.28;;;;;;;6.32;91.37;101389.25;10474954;28;20075;-81
2024/01/25 03:43:41;;;;;;;29.90;5.18;;;;;;;6.05;93.84;101394.06;10482491;28;21169;-79
2024/01/25 03:48:46;;;;;;;33.97;5.93;;;;;;;6.24;92.71;101383.41;10455070;28;20079;-81
2024/01/25 03:53:52;;;;;;;37.88;5.00;;;;;;;5.70;96.33;101394.75;10459097;28;20048;-79
2024/01/25 03:58:56;;;;;;;30.52;5.45;;;;;;;6.16;92.68;101408.63;10476332;28;20055;-79
2024/01/25 04:03:58;;;;;;;28.25;5.05;;;;;;;6.07;92.16;101402.88;10463066;28;20279;-79
2024/01/25 04:09:03;;;;;;;36.70;5.53;;;;;;;6.17;91.21;101414.81;10448889;28;20526;-79
2024/01/25 04:14:06;;;;;;;29.98;5.28;;;;;;;6.16;91.79;101435.31;10477860;28;20048;-81
2024/01/25 04:19:12;;;;;;;33.97;4.70;;;;;;;6.03;93.20;101442.13;10475539;28;20056;-83
2024/01/25 04:24:16;;;;;;;21.45;4.00;;;;;;;5.92;92.31;101431.97;10497989;28;20056;-80
2024/01/25 04:29:19;;;;;;;33.60;5.45;;;;;;;6.18;92.03;101438.78;10486719;28;20053;-81
2024/01/25 04:34:22;;;;;;;24.08;4.10;;;;;;;6.10;92.32;101430.25;10485650;28;20403;-79
2024/01/25 04:39:27;;;;;;;24.80;5.15;;;;;;;6.28;90.21;101422.34;10489521;28;20185;-80
2024/01/25 04:44:30;;;;;;;32.38;5.10;;;;;;;6.05;92.41;101431.41;10485277;28;20048;-79
2024/01/25 04:49:33;;;;;;;37.88;5.47;;;;;;;5.63;95.32;101449.25;10484109;28;20048;-80
2024/01/25 04:54:38;;;;;;;27.48;4.85;;;;;;;5.95;94.29;101455.84;10478795;28;21075;-78
2024/01/25 04:59:41;;;;;;;29.05;5.18;;;;;;;5.94;94.37;101447.91;10482921;28;20527;-78
2024/01/25 05:04:44;;;;;;;19.05;4.25;;;;;;;5.67;95.98;101453.50;10484618;28;21224;-80
2024/01/25 05:09:50;;;;;;;31.23;4.95;;;;;;;5.68;96.77;101457.91;10480039;28;20056;-80
2024/01/25 05:14:53;;;;;;;30.38;7.25;;;;;;;5.77;95.97;101459.31;10491948;28;20043;-80
2024/01/25 05:19:56;;;;;;;27.95;6.05;;;;;;;5.55;97.43;101469.19;10485468;28;20529;-79
2024/01/25 05:25:00;;;;;;;31.02;5.35;;;;;;;5.31;98.69;101481.72;10496581;28;20129;-78
2024/01/25 05:30:04;;;;;;;28.58;5.30;;;;;;;5.68;96.42;101471.25;10486216;28;20127;-78
2024/01/25 05:35:09;;;;;;;35.20;5.18;;;;;;;5.46;98.38;101455.31;10474644;28;20058;-78
2024/01/25 05:40:14;;;;;;;39.92;5.88;;;;;;;5.59;98.27;101471.63;10486084;28;20051;-78
2024/01/25 05:45:19;;;;;;;38.60;5.25;;;;;;;5.61;95.67;101491.09;10491208;28;20051;-80
2024/01/25 05:50:22;;;;;;;25.63;5.63;;;;;;;5.74;95.71;101496.78;10487613;28;20178;-78
2024/01/25 05:55:27;;;;;;;27.65;4.80;;;;;;;5.23;99.78;101509.53;10485031;28;21647;-78
2024/01/25 06:00:30;;;;;;;36.70;5.10;;;;;;;5.16;100.00;101515.22;10455633;28;21218;-79
2024/01/25 06:05:33;;;;;;;28.42;4.72;;;;;;;5.33;99.48;101502.06;10485250;28;20056;-79
2024/01/25 06:10:39;;;;;;;42.72;6.45;;;;;;;5.50;98.12;101490.69;10438619;28;20059;-78
2024/01/25 06:15:42;;;;;;;36.85;5.30;;;;;;;5.05;100.00;101491.66;10457899;28;20051;-79
2024/01/25 06:20:45;;;;;;;42.55;6.07;;;;;;;5.36;99.54;101503.72;10454658;28;20063;-79
2024/01/25 06:25:50;;;;;;;40.28;5.82;;;;;;;5.09;100.00;101505.72;10453670;28;20052;-79
2024/01/25 06:30:53;;;;;;;37.80;7.68;;;;;;;4.95;100.00;101512.44;10445519;28;20059;-80
2024/01/25 06:35:58;;;;;;;33.42;5.97;;;;;;;5.14;100.00;101519.72;10474096;28;20071;-78
2024/01/25 06:41:02;;;;;;;45.30;5.13;;;;;;;4.55;100.00;101523.75;10450781;28;20056;-79
2024/01/25 06:46:06;;;;;;;42.03;6.85;;;;;;;5.04;100.00;101527.19;10443509;28;20060;-79
2024/01/25 06:51:10;;;;;;;45.53;5.07;;;;;;;4.16;100.00;101533.13;10441361;28;20677;-79
2024/01/25 06:56:14;;;;;;;42.50;7.60;;;;;;;4.54;100.00;101535.31;10433394;28;20055;-77
2024/01/25 07:01:21;;;;;;;52.85;8.68;;;;;;;4.61;100.00;101542.16;10438692;28;20049;-79
2024/01/25 07:06:26;;;;;;;40.97;6.00;;;;;;;4.36;100.00;101552.81;10443494;28;20626;-80
2024/01/25 07:11:31;;;;;;;32.70;5.15;;;;;;;4.27;100.00;101555.81;10436090;28;20048;-80
2024/01/25 07:16:33;;;;;;;28.63;5.13;;;;;;;3.94;100.00;101569.41;10439752;28;20063;-78
2024/01/25 07:21:36;;;;;;;36.15;5.60;;;;;;;3.93;100.00;101563.22;10444314;28;20207;-79
2024/01/25 07:26:41;;;;;;;31.13;5.30;;;;;;;4.33;100.00;101572.47;10439048;28;20045;-78
2024/01/25 07:31:44;;;;;;;40.40;5.90;;;;;;;4.48;100.00;101567.50;10436848;28;20547;-79
2024/01/25 07:36:47;;;;;;;37.85;6.35;;;;;;;4.61;100.00;101568.78;10452657;28;21917;-79
2024/01/25 07:41:52;;;;;;;35.70;6.30;;;;;;;4.26;100.00;101578.03;10442698;28;20063;-79
2024/01/25 07:46:55;;;;;;;34.95;6.47;;;;;;;4.18;100.00;101573.84;10446705;28;20048;-79
2024/01/25 07:51:58;;;;;;;41.75;6.38;;;;;;;4.58;100.00;101577.75;10444651;28;20040;-79
2024/01/25 07:57:03;;;;;;;35.58;5.03;;;;;;;4.33;100.00;101571.56;10442207;28;20050;-79
2024/01/25 08:02:06;;;;;;;37.25;6.30;;;;;;;4.57;100.00;101576.00;10451108;28;20048;-78
2024/01/25 08:07:09;;;;;;;30.73;5.47;;;;;;;4.63;100.00;101574.91;10453093;28;20048;-79
2024/01/25 08:12:14;;;;;;;27.38;4.35;;;;;;;4.81;100.00;101595.50;10442817;28;20084;-78
2024/01/25 08:17:17;;;;;;;36.92;6.18;;;;;;;4.55;100.00;101584.94;10453394;28;20053;-79
2024/01/25 08:22:20;;;;;;;42.95;6.75;;;;;;;5.20;100.00;101581.59;10455369;28;20149;-79
2024/01/25 08:27:26;;;;;;;29.05;4.90;;;;;;;4.41;100.00;101596.09;10456480;28;20045;-79
2024/01/25 08:32:29;;;;;;;32.25;5.47;;;;;;;5.05;100.00;101601.72;10493636;28;20679;-79
2024/01/25 08:37:33;;;;;;;46.08;5.70;;;;;;;5.26;100.00;101609.81;10489048;28;20050;-79
2024/01/25 08:42:38;;;;;;;32.90;7.10;;;;;;;5.73;98.25;101618.56;10462297;28;20053;-79
2024/01/25 08:47:41;;;;;;;31.20;5.57;;;;;;;5.76;95.50;101616.69;10490082;28;20102;-78
2024/01/25 08:52:44;;;;;;;34.75;6.47;;;;;;;5.61;95.98;101621.72;10471147;28;20047;-77
2024/01/25 08:57:49;;;;;;;36.85;6.70;;;;;;;5.67;97.18;101639.25;10470950;28;20059;-78
2024/01/25 09:02:52;;;;;;;36.90;5.32;;;;;;;5.47;97.99;101632.06;10473568;28;20120;-78
2024/01/25 09:07:55;;;;;;;45.20;7.15;;;;;;;5.59;98.12;101628.03;10477377;28;20051;-79
2024/01/25 09:13:00;;;;;;;43.80;6.88;;;;;;;5.72;95.57;101621.28;10465384;28;20044;-79
2024/01/25 09:18:03;;;;;;;36.60;6.40;;;;;;;5.69;96.02;101624.09;10469547;28;20881;-78
2024/01/25 09:23:06;;;;;;;30.35;5.97;;;;;;;5.63;96.36;101622.53;10447210;28;21199;-79
2024/01/25 09:28:11;;;;;;;41.38;6.28;;;;;;;5.53;97.08;101630.97;10464971;28;20424;-78
2024/01/25 09:33:15;;;;;;;40.80;5.45;;;;;;;5.63;96.38;101637.66;10464014;28;20040;-78
2024/01/25 09:38:18;;;;;;;35.45;7.22;;;;;;;5.41;99.34;101657.19;10490262;28;20052;-80
2024/01/25 09:43:23;;;;;;;30.38;5.35;;;;;;;5.04;100.00;101660.38;10477887;28;20059;-77
2024/01/25 09:48:26;;;;;;;41.17;6.60;;;;;;;5.43;99.80;101658.00;10473728;28;20051;-77
2024/01/25 09:53:33;;;;;;;26.80;7.70;;;;;;;5.37;98.60;101652.88;10501774;28;20268;-78
2024/01/25 09:58:41;;;;;;;38.80;7.15;;;;;;;5.31;100.00;101658.47;10492692;28;20052;-79
2024/01/25 10:03:45;;;;;;;40.15;9.00;;;;;;;5.03;100.00;101679.97;10488327;28;21609;-79
2024/01/25 10:08:49;;;;;;;38.83;7.15;;;;;;;5.66;99.68;101682.88;10485065;28;20055;-78
2024/01/25 10:13:56;;;;;;;42.42;8.40;;;;;;;5.64;98.46;101672.25;10472938;28;20060;-79
2024/01/25 10:18:59;;;;;;;33.05;5.85;;;;;;;5.44;100.00;101685.50;10484775;28;21160;-79
2024/01/25 10:24:03;;;;;;;30.05;5.85;;;;;;;5.63;98.38;101691.84;10455993;28;21166;-78
2024/01/25 10:29:09;;;;;;;43.72;7.10;;;;;;;6.03;95.77;101678.69;10454620;28;22027;-78
2024/01/25 10:34:15;;;;;;;31.95;7.05;;;;;;;6.50;93.79;101673.13;10443207;28;20492;-79
2024/01/25 10:39:18;;;;;;;42.28;8.43;;;;;;;6.31;94.48;101676.63;10441946;28;20041;-79
2024/01/25 10:44:23;;;;;;;29.85;6.32;;;;;;;6.11;94.87;101676.56;10447267;28;20044;-78
2024/01/25 10:49:27;;;;;;;33.83;6.57;;;;;;;5.62;96.58;101684.78;10445360;28;20530;-78
2024/01/25 10:54:30;;;;;;;27.00;7.05;;;;;;;5.63;97.52;101683.84;10467057;28;20074;-77
2024/01/25 10:59:35;;;;;;;31.38;6.45;;;;;;;6.09;95.02;101697.13;10447378;28;20047;-78
2024/01/25 11:04:38;;;;;;;35.08;6.18;;;;;;;6.27;93.19;101682.13;10454327;28;20520;-79
2024/01/25 11:09:41;;;;;;;32.55;6.38;;;;;;;6.17;93.08;101678.97;10454448;28;20055;-79
2024/01/25 11:14:46;;;;;;;37.03;7.55;;;;;;;5.85;97.22;101669.66;10455585;28;20075;-79
2024/01/25 11:19:50;;;;;;;32.95;7.45;;;;;;;5.84;96.28;101670.56;10485583;28;20052;-78
2024/01/25 11:24:53;;;;;;;34.42;6.47;;;;;;;6.05;95.81;101661.69;10445465;28;21158;-78
2024/01/25 11:29:58;;;;;;;35.90;7.22;;;;;;;6.85;91.13;101667.09;10437326;28;20048;-78
2024/01/25 11:35:01;;;;;;;35.28;8.20;;;;;;;8.13;83.05;101656.56;10451818;28;20588;-79
2024/01/25 11:40:06;;;;;;;33.15;6.53;;;;;;;8.30;81.73;101638.78;10465996;28;21691;-79
2024/01/25 11:45:12;;;;;;;31.65;5.85;;;;;;;8.68;77.95;101636.81;10443473;28;20053;-78
2024/01/25 11:50:15;;;;;;;32.40;6.18;;;;;;;8.50;77.27;101633.31;10432027;28;20526;-79
2024/01/25 11:55:18;;;;;;;32.97;6.45;;;;;;;7.55;81.42;101647.91;10447118;28;20070;-78
2024/01/25 12:00:23;;;;;;;27.40;5.80;;;;;;;7.26;84.21;101653.66;10450257;28;20916;-77
2024/01/25 12:05:27;;;;;;;28.83;6.05;;;;;;;7.04;85.79;101647.59;10474791;28;20048;-78
2024/01/25 12:10:30;;;;;;;30.67;5.40;;;;;;;7.40;83.59;101634.28;10486513;28;20048;-78
2024/01/25 12:15:34;;;;;;;31.15;5.95;;;;;;;7.81;82.83;101627.88;10465552;28;20044;-79
2024/01/25 12:20:37;;;;;;;25.77;6.18;;;;;;;8.15;78.22;101613.69;10487700;28;20063;-79
2024/01/25 12:25:41;;;;;;;27.42;6.35;;;;;;;8.11;77.95;101620.13;10486119;28;20072;-79
2024/01/25 12:30:46;;;;;;;31.63;6.22;;;;;;;8.05;79.14;101618.63;10489497;28;20056;-79
2024/01/25 12:35:49;;;;;;;33.63;5.32;;;;;;;9.06;73.68;101623.16;10486840;28;20165;-79
2024/01/25 12:40:53;;;;;;;31.67;5.47;;;;;;;7.92;78.78;101626.38;10489019;28;20040;-79
2024/01/25 12:45:58;;;;;;;26.70;6.93;;;;;;;8.28;78.58;101625.50;10490595;28;20051;-78
2024/01/25 12:51:18;;;;;;;29.73;6.45;;;;;;;8.54;77.22;101626.81;10478609;28;20052;-79
2024/01/25 12:56:21;;;;;;;31.17;6.78;;;;;;;7.93;79.38;101616.56;10486575;28;20044;-79
2024/01/25 13:01:27;;;;;;;32.85;6.40;;;;;;;8.43;76.31;101610.41;10443456;28;20687;-80
2024/01/25 13:06:30;;;;;;;33.42;5.72;;;;;;;7.99;76.35;101607.38;10470199;28;20036;-79
2024/01/25 13:11:33;;;;;;;25.88;6.07;;;;;;;7.24;80.66;101599.44;10449051;28;20045;-79
2024/01/25 13:16:38;;;;;;;24.65;5.28;;;;;;;6.54;85.21;101614.19;10445595;28;20057;-79
2024/01/25 13:21:41;;;;;;;33.38;6.25;;;;;;;6.50;86.03;101604.63;10450979;28;20063;-78
2024/01/25 13:26:45;;;;;;;27.65;6.50;;;;;;;7.52;82.39;101597.25;10463292;28;20053;-79
2024/01/25 13:31:49;;;;;;;33.75;6.47;;;;;;;7.22;83.15;101598.63;10464641;28;20048;-79
2024/01/25 13:36:52;;;;;;;26.42;6.22;;;;;;;7.29;81.29;101612.56;10451512;28;20048;-78
2024/01/25 13:41:56;;;;;;;39.60;7.18;;;;;;;7.54;80.25;101614.91;10448801;28;20082;-79
2024/01/25 13:47:01;;;;;;;37.38;7.25;;;;;;;7.19;83.02;101616.63;10452709;28;20048;-79
2024/01/25 13:52:05;;;;;;;30.25;5.90;;;;;;;6.84;83.10;101624.44;10510554;28;20103;-79
2024/01/25 13:57:08;;;;;;;29.25;6.80;;;;;;;7.43;81.81;101619.91;10515812;28;20047;-79
2024/01/25 14:02:12;;;;;;;33.03;6.25;;;;;;;7.33;81.36;101615.97;10516823;28;20044;-79
2024/01/25 14:07:16;;;;;;;32.47;6.75;;;;;;;7.94;78.47;101619.16;10507784;28;20043;-79
2024/01/25 14:12:20;;;;;;;32.40;6.80;;;;;;;7.88;79.58;101614.13;10493134;28;20430;-79
2024/01/25 14:17:26;;;;;;;35.97;8.95;;;;;;;7.39;82.37;101615.69;10489309;28;20111;-79
2024/01/25 14:22:30;;;;;;;38.50;9.52;;;;;;;7.71;80.01;101616.78;10459383;28;20539;-78
2024/01/25 14:27:37;;;;;;;35.83;9.75;;;;;;;7.71;79.84;101596.25;10458783;28;20052;-78
2024/01/25 14:32:41;;;;;;;36.03;9.73;;;;;;;7.55;80.29;101594.41;10436895;28;20084;-77
2024/01/25 14:37:44;;;;;;;45.28;12.20;;;;;;;7.53;80.65;101590.94;10445101;28;20697;-77
2024/01/25 14:42:47;;;;;;;49.10;12.18;;;;;;;7.24;82.76;101583.41;10444891;28;20516;-77
2024/01/25 14:47:52;;;;;;;36.10;11.32;;;;;;;7.45;82.02;101577.94;10447124;28;20051;-78
2024/01/25 14:52:55;;;;;;;36.47;10.68;;;;;;;7.57;80.58;101593.41;10440599;28;20496;-78
2024/01/25 14:57:58;;;;;;;46.30;13.98;;;;;;;7.25;81.45;101592.28;10444982;28;20125;-77
2024/01/25 15:03:02;;;;;;;47.80;14.00;;;;;;;7.07;82.97;101594.00;10449811;28;20055;-78
2024/01/25 15:08:06;;;;;;;49.38;14.32;;;;;;;6.99;83.41;101577.47;10436997;28;20053;-79
2024/01/25 15:13:09;;;;;;;51.75;13.30;;;;;;;6.72;85.72;101571.56;10444705;28;20408;-77
2024/01/25 15:18:13;;;;;;;49.67;15.27;;;;;;;6.81;85.33;101556.00;10448538;28;20048;-77
2024/01/25 15:23:16;;;;;;;41.67;13.50;;;;;;;6.85;85.44;101568.25;10444238;28;20119;-79
2024/01/25 15:28:19;;;;;;;41.47;12.43;;;;;;;6.83;85.79;101574.66;10445779;28;20048;-79
2024/01/25 15:33:24;;;;;;;48.78;13.90;;;;;;;6.72;87.19;101571.56;10443849;28;20691;-77
2024/01/25 15:38:27;;;;;;;64.38;15.38;;;;;;;6.66;87.77;101578.06;10440890;28;20135;-77
2024/01/25 15:43:31;;;;;;;56.20;16.35;;;;;;;6.62;88.10;101574.69;10440329;28;20439;-78
2024/01/25 15:48:35;;;;;;;52.40;12.05;;;;;;;6.52;88.83;101568.00;10439883;28;20254;-78
2024/01/25 15:53:38;;;;;;;53.15;13.73;;;;;;;6.41;90.28;101559.63;10439142;28;20580;-79
2024/01/25 15:58:41;;;;;;;52.97;14.27;;;;;;;6.32;90.71;101560.91;10454090;28;20049;-80
2024/01/25 16:03:45;;;;;;;55.20;13.02;;;;;;;6.20;92.21;101557.91;10443687;28;20049;-79
2024/01/25 16:08:49;;;;;;;51.25;14.40;;;;;;;6.18;92.78;101558.84;10465540;28;20056;-80
2024/01/25 16:13:52;;;;;;;45.15;11.27;;;;;;;5.92;94.72;101552.00;10453143;28;20063;-80
2024/01/25 16:18:56;;;;;;;71.45;13.63;;;;;;;5.99;94.52;101549.91;10450863;28;20044;-78
2024/01/25 16:23:59;;;;;;;31.35;9.63;;;;;;;5.96;94.38;101547.38;10447289;28;20432;-78
2024/01/25 16:29:02;;;;;;;50.40;10.93;;;;;;;5.91;93.81;101542.25;10472837;28;20079;-78
2024/01/25 16:34:07;;;;;;;39.42;10.27;;;;;;;5.89;93.86;101537.91;10462591;28;20040;-79
2024/01/25 16:39:10;;;;;;;46.58;10.45;;;;;;;5.73;93.79;101525.25;10458027;28;20051;-78
2024/01/25 16:44:13;;;;;;;43.60;9.13;;;;;;;5.82;93.16;101526.66;10462904;28;20052;-78
2024/01/25 16:49:17;;;;;;;48.75;10.75;;;;;;;5.86;92.26;101528.22;10466215;28;20052;-78
2024/01/25 16:54:21;;;;;;;44.55;9.63;;;;;;;5.90;91.80;101524.53;10449486;28;20175;-77
2024/01/25 16:59:24;;;;;;;44.33;10.38;;;;;;;5.90;91.49;101495.19;10456727;28;20528;-78
2024/01/25 17:04:28;;;;;;;57.45;11.50;;;;;;;5.86;91.48;101493.56;10457216;28;20056;-78
2024/01/25 17:09:31;;;;;;;47.75;10.00;;;;;;;5.97;90.78;101495.75;10454937;28;20071;-78
2024/01/25 17:14:34;;;;;;;43.28;9.10;;;;;;;5.82;90.83;101491.13;10454899;28;20057;-79
2024/01/25 17:19:38;;;;;;;46.63;8.90;;;;;;;6.02;89.84;101490.25;10446911;28;20060;-79
2024/01/25 17:24:42;;;;;;;38.92;9.45;;;;;;;5.98;89.47;101488.63;10462922;28;20072;-79
2024/01/25 17:29:45;;;;;;;35.63;7.95;;;;;;;5.89;90.05;101480.09;10476132;28;20111;-78
2024/01/25 17:34:50;;;;;;;38.65;8.07;;;;;;;5.93;89.79;101467.50;10459536;28;20048;-78
2024/01/25 17:39:53;;;;;;;40.17;10.25;;;;;;;5.93;89.20;101465.69;10465404;28;20670;-77
2024/01/25 17:44:56;;;;;;;41.88;8.95;;;;;;;5.80;90.38;101452.97;10473438;28;20052;-78
2024/01/25 17:50:00;;;;;;;39.55;8.48;;;;;;;5.88;89.60;101456.19;10456938;28;20040;-78
2024/01/25 17:55:04;;;;;;;40.78;9.38;;;;;;;5.91;89.48;101446.22;10475722;28;20049;-79
2024/01/25 18:00:09;;;;;;;36.70;9.02;;;;;;;5.90;88.93;101448.97;10475191;28;20053;-80
2024/01/25 18:05:13;;;;;;;35.88;8.43;;;;;;;5.84;88.45;101457.22;10455362;28;20048;-79
2024/01/25 18:10:16;;;;;;;35.42;7.63;;;;;;;5.76;87.71;101451.38;10471643;28;20045;-81
2024/01/25 18:15:19;;;;;;;42.97;9.65;;;;;;;5.79;86.65;101449.47;10468522;28;20129;-79
2024/01/25 18:20:24;;;;;;;34.17;8.70;;;;;;;5.88;85.10;101449.03;10463507;28;20044;-79
2024/01/25 18:25:27;;;;;;;41.75;9.00;;;;;;;5.90;84.72;101449.84;10456314;28;20118;-79
2024/01/25 18:30:30;;;;;;;49.42;11.23;;;;;;;5.91;84.08;101438.22;10468361;28;20516;-79
2024/01/25 18:35:34;;;;;;;32.72;8.20;;;;;;;5.89;83.81;101428.56;10463985;28;20079;-79
2024/01/25 18:40:37;;;;;;;25.80;7.57;;;;;;;5.81;83.75;101436.91;10468752;28;20048;-79
2024/01/25 18:45:40;;;;;;;32.95;9.25;;;;;;;5.89;83.21;101441.91;10460349;28;20072;-79
2024/01/25 18:50:45;;;;;;;32.05;8.52;;;;;;;5.87;82.98;101439.31;10453030;28;20122;-79
2024/01/25 18:55:48;;;;;;;31.00;8.70;;;;;;;5.90;82.70;101427.66;10463222;28;20048;-79
2024/01/25 19:00:52;;;;;;;30.67;7.28;;;;;;;5.91;82.26;101438.22;10452673;28;20052;-79
2024/01/25 19:05:57;;;;;;;41.60;8.93;;;;;;;5.92;82.17;101423.97;10449985;28;20040;-80
2024/01/25 19:11:01;;;;;;;27.55;7.80;;;;;;;5.91;81.53;101424.03;10466583;28;20049;-79
2024/01/25 19:16:04;;;;;;;29.50;7.38;;;;;;;6.16;80.36;101423.78;10468434;28;20144;-80
2024/01/25 19:21:09;;;;;;;32.75;7.57;;;;;;;6.25;79.84;101406.47;10451611;28;21331;-78
2024/01/25 19:26:12;;;;;;;31.85;6.45;;;;;;;6.33;79.60;101415.84;10461845;28;20044;-79
2024/01/25 19:31:17;;;;;;;37.28;8.32;;;;;;;6.24;79.82;101410.94;10456072;28;20108;-79
2024/01/25 19:36:21;;;;;;;39.67;8.20;;;;;;;6.27;80.16;101407.28;10471422;28;20047;-79
2024/01/25 19:41:25;;;;;;;32.28;9.25;;;;;;;6.24;81.29;101402.94;10479310;28;20072;-78
2024/01/25 19:46:28;;;;;;;33.08;8.40;;;;;;;6.48;80.26;101400.06;10480776;28;20048;-79
2024/01/25 19:51:32;;;;;;;32.25;8.20;;;;;;;6.48;81.13;101392.06;10475606;28;20045;-79
2024/01/25 19:56:35;;;;;;;26.30;7.20;;;;;;;6.39;82.83;101378.22;10489604;28;20053;-79
2024/01/25 20:01:41;;;;;;;40.03;8.77;;;;;;;6.26;85.63;101385.06;10495199;28;20054;-79
2024/01/25 20:06:46;;;;;;;36.70;7.57;;;;;;;6.45;85.41;101378.88;10491304;28;20159;-79
2024/01/25 20:11:49;;;;;;;31.55;7.78;;;;;;;6.45;87.03;101376.19;10494201;28;20048;-79
2024/01/25 20:16:52;;;;;;;37.03;9.40;;;;;;;6.57;87.38;101376.44;10500358;28;20055;-79
2024/01/25 20:21:57;;;;;;;26.75;7.93;;;;;;;6.61;87.57;101371.84;10492898;28;20102;-79
2024/01/25 20:27:00;;;;;;;32.17;10.00;;;;;;;6.59;88.05;101371.91;10481594;28;20048;-80
2024/01/25 20:32:04;;;;;;;40.33;9.32;;;;;;;6.67;88.08;101366.19;10490082;28;20052;-79
2024/01/25 20:37:08;;;;;;;30.20;9.02;;;;;;;6.68;88.84;101364.38;10488919;28;20068;-79
2024/01/25 20:42:12;;;;;;;36.13;9.68;;;;;;;6.67;89.86;101365.34;10482205;28;20052;-79
2024/01/25 20:47:15;;;;;;;34.20;8.75;;;;;;;6.72;90.25;101357.94;10489449;28;20044;-79
2024/01/25 20:52:19;;;;;;;27.90;7.72;;;;;;;6.71;90.98;101346.41;10482411;28;20041;-81
2024/01/25 20:57:22;;;;;;;26.00;7.13;;;;;;;6.67;92.18;101349.31;10487245;28;20090;-79
2024/01/25 21:02:26;;;;;;;23.40;6.88;;;;;;;6.75;92.32;101336.44;10480170;28;20036;-80
2024/01/25 21:07:31;;;;;;;28.95;6.40;;;;;;;6.73;93.05;101346.34;10479583;28;20044;-80
2024/01/25 21:12:35;;;;;;;29.08;8.45;;;;;;;6.70;93.87;101333.13;10480034;28;20042;-80
2024/01/25 21:17:39;;;;;;;35.72;6.78;;;;;;;6.69;93.83;101332.28;10482639;28;20060;-80
2024/01/25 21:22:44;;;;;;;26.08;6.35;;;;;;;6.65;95.27;101329.81;10480660;28;20049;-80
2024/01/25 21:27:48;;;;;;;37.80;6.63;;;;;;;6.44;100.00;101339.75;10486455;28;20048;-79
2024/01/25 21:32:51;;;;;;;33.33;9.48;;;;;;;6.32;100.00;101335.88;10487748;28;20055;-80
2024/01/25 21:37:56;;;;;;;24.13;6.78;;;;;;;6.26;100.00;101330.84;10479600;28;20119;-80
2024/01/25 21:43:00;;;;;;;30.30;7.88;;;;;;;6.28;100.00;101335.16;10474774;28;20082;-79
2024/01/25 21:48:08;;;;;;;31.92;8.60;;;;;;;6.29;100.00;101338.69;10480016;28;21578;-80
2024/01/25 21:53:13;;;;;;;33.97;9.18;;;;;;;6.19;100.00;101332.91;10461380;28;20048;-79
2024/01/25 21:58:17;;;;;;;31.35;7.85;;;;;;;6.16;100.00;101317.06;10454858;28;20086;-80
2024/01/25 22:03:20;;;;;;;36.78;7.85;;;;;;;6.17;100.00;101318.78;10493830;28;20531;-79
2024/01/25 22:08:24;;;;;;;38.92;7.85;;;;;;;6.14;100.00;101298.47;10466666;28;21008;-80
2024/01/25 22:13:29;;;;;;;28.55;7.63;;;;;;;6.14;100.00;101306.47;10469152;28;20118;-80
2024/01/25 22:18:33;;;;;;;33.30;6.95;;;;;;;6.32;100.00;101298.50;10481550;28;20123;-80
2024/01/25 22:23:37;;;;;;;37.63;7.53;;;;;;;6.41;100.00;101295.38;10472174;28;20127;-79
2024/01/25 22:28:40;;;;;;;31.55;6.57;;;;;;;6.21;100.00;101295.50;10469447;28;20060;-79
2024/01/25 22:33:43;;;;;;;33.45;7.47;;;;;;;6.32;100.00;101287.84;10471985;28;20051;-79
2024/01/25 22:38:48;;;;;;;42.97;7.63;;;;;;;6.20;100.00;101294.63;10474369;28;20090;-80
2024/01/25 22:43:51;;;;;;;33.55;9.13;;;;;;;6.14;100.00;101281.56;10471512;28;20055;-79
2024/01/25 22:48:54;;;;;;;25.65;7.18;;;;;;;5.99;100.00;101277.84;10486891;28;21163;-80
2024/01/25 22:53:59;;;;;;;32.65;8.68;;;;;;;6.25;100.00;101273.91;10475291;28;20087;-79
2024/01/25 22:59:02;;;;;;;35.90;8.55;;;;;;;6.34;100.00;101272.63;10473154;28;20059;-79
2024/01/25 23:04:05;;;;;;;28.73;8.57;;;;;;;6.26;100.00;101264.13;10481726;28;20147;-80
2024/01/25 23:09:10;;;;;;;41.75;10.82;;;;;;;6.18;100.00;101253.81;10488819;28;20048;-80